Terminal Aerodrome Forecast
Issued by NWS Jackson, MS

Home | Current Version | Previous Version | Text Only | Print | Product List | Glossary On
Versions: 1 2 3 4 5 6 7 8 9 10 11 12 13 14 15
172
FTUS44 KMEG 251730
TAFTUP
TAF
KTUP 251730Z 2518/2618 32005KT P6SM FEW250
     FM252100 32007KT P6SM BKN150 BKN250
     FM260000 VRB04KT P6SM BKN060 OVC150
     FM260400 VRB04KT P6SM VCSH FEW035 OVC060
      TEMPO 2604/2606 -RA BKN035
     FM260600 10005KT 5SM RA BR BKN009 OVC015
     FM260900 04010KT 5SM RA BR BKN009 OVC015
     FM261400 31012KT 6SM -RA BR OVC009=

USA.gov is the U.S. government's official web portal to all federal, state and local government web resources and services.